Time;durP1;ratioP1;P1;durP2;ratioP2;P2;SDS_P1;SDS_P2;PMS_P1;PMS_P2;Temp;Humidity;BMP_temperature;BMP_pressure;BME280_temperature;BME280_humidity;BME280_pressure;Samples;Min_cycle;Max_cycle;Signal;HPM_P1;HPM_P2
2022/07/20 00:00:24;;;;;;;1999.90;999.90;;;;;;;21.32;100.00;95440.75;5054694;28;20209;-59
2022/07/20 00:02:50;;;;;;;1999.90;999.90;;;;;;;21.24;100.00;95440.31;5054551;28;20174;-61
2022/07/20 00:05:15;;;;;;;1999.90;999.90;;;;;;;21.06;100.00;95439.66;5054437;28;20194;-63
2022/07/20 00:07:40;;;;;;;1999.90;999.90;;;;;;;20.95;100.00;95437.38;5054675;28;20273;-61
2022/07/20 00:12:50;;;;;;;1999.90;999.90;;;;;;;20.96;100.00;95433.38;5055696;28;20201;-62
2022/07/20 00:15:16;;;;;;;1999.90;999.90;;;;;;;20.97;100.00;95434.91;5038295;28;20203;-60
2022/07/20 00:17:41;;;;;;;1999.90;999.90;;;;;;;20.92;100.00;95431.97;5038505;28;20197;-62
2022/07/20 00:20:07;;;;;;;1999.90;999.90;;;;;;;20.83;100.00;95429.97;5054357;28;20267;-56
2022/07/20 00:22:33;;;;;;;1999.90;999.90;;;;;;;20.86;100.00;95428.28;5054681;28;20189;-59
2022/07/20 00:24:58;;;;;;;1999.90;999.90;;;;;;;20.81;100.00;95424.16;5054212;28;20186;-59
2022/07/20 00:27:23;;;;;;;1999.90;999.90;;;;;;;20.74;100.00;95430.03;5054385;28;20213;-59
2022/07/20 00:29:49;;;;;;;1999.90;999.90;;;;;;;20.71;100.00;95432.94;5054115;28;20190;-60
2022/07/20 00:32:14;;;;;;;1999.90;999.90;;;;;;;20.69;100.00;95422.31;5054768;28;20206;-59
2022/07/20 00:34:40;;;;;;;1999.90;999.90;;;;;;;20.67;100.00;95422.03;5053862;28;20212;-60
2022/07/20 00:37:05;;;;;;;1999.90;999.90;;;;;;;20.63;100.00;95421.44;5053915;28;20203;-56
2022/07/20 00:39:30;;;;;;;1999.90;999.90;;;;;;;20.58;100.00;95419.25;5054010;28;20190;-65
2022/07/20 00:41:56;;;;;;;1999.90;999.90;;;;;;;20.54;100.00;95415.13;5053504;28;20273;-64
2022/07/20 00:44:21;;;;;;;1999.90;999.90;;;;;;;20.48;100.00;95415.00;5053716;28;20186;-65
2022/07/20 00:46:47;;;;;;;1999.90;999.90;;;;;;;20.48;100.00;95419.78;5054185;28;20186;-66
2022/07/20 00:49:14;;;;;;;1999.90;999.90;;;;;;;20.42;100.00;95411.31;5053690;28;20190;-65
2022/07/20 00:51:42;;;;;;;1999.90;999.90;;;;;;;20.35;100.00;95405.31;5037110;28;20297;-64
2022/07/20 00:54:08;;;;;;;1999.90;999.90;;;;;;;20.26;100.00;95406.13;5037379;28;20247;-57
2022/07/20 00:56:35;;;;;;;1999.90;999.90;;;;;;;20.16;100.00;95404.59;5053401;28;20221;-58
2022/07/20 00:59:03;;;;;;;1999.90;999.90;;;;;;;20.17;100.00;95397.03;5037023;28;20186;-59
2022/07/20 01:01:28;;;;;;;1999.90;999.90;;;;;;;20.17;100.00;95397.78;5053536;28;20200;-61
2022/07/20 01:04:08;;;;;;;1999.90;999.90;;;;;;;20.23;100.00;95397.94;5194190;27;20589;-61
2022/07/20 01:06:34;;;;;;;1999.90;999.90;;;;;;;20.26;100.00;95392.25;5154467;27;20217;-60
2022/07/20 01:08:59;;;;;;;1999.90;999.90;;;;;;;20.25;100.00;95401.03;5147647;27;20281;-62
2022/07/20 01:11:25;;;;;;;1999.90;999.90;;;;;;;20.19;100.00;95400.88;5133824;27;20178;-59
2022/07/20 01:13:50;;;;;;;1999.90;999.90;;;;;;;20.11;100.00;95405.22;5133993;27;20175;-61
2022/07/20 01:16:16;;;;;;;1999.90;999.90;;;;;;;20.11;100.00;95402.44;5133814;27;20209;-59
2022/07/20 01:18:42;;;;;;;1999.90;999.90;;;;;;;20.11;100.00;95385.81;5133550;27;20187;-59
2022/07/20 01:21:08;;;;;;;1999.90;999.90;;;;;;;20.03;100.00;95386.56;5134243;27;20177;-58
2022/07/20 01:23:34;;;;;;;1999.90;999.90;;;;;;;20.00;100.00;95377.16;5133899;27;20209;-59
2022/07/20 01:26:00;;;;;;;1999.90;999.90;;;;;;;19.96;100.00;95379.31;5133637;27;20186;-58
2022/07/20 01:28:27;;;;;;;1999.90;999.90;;;;;;;19.83;100.00;95378.72;5133612;27;20237;-58
2022/07/20 01:30:53;;;;;;;1999.90;999.90;;;;;;;19.76;100.00;95381.78;5133922;27;20183;-55
2022/07/20 01:33:19;;;;;;;1999.90;999.90;;;;;;;19.67;100.00;95379.03;5133773;27;20231;-61
2022/07/20 01:35:44;;;;;;;1999.90;999.90;;;;;;;19.64;100.00;95388.28;5133548;27;20202;-62
2022/07/20 01:38:10;;;;;;;1999.90;999.90;;;;;;;19.61;100.00;95375.34;5133405;27;20212;-61
2022/07/20 01:40:35;;;;;;;1999.90;999.90;;;;;;;19.63;100.00;95378.41;5133107;27;20182;-60
2022/07/20 01:43:01;;;;;;;1999.90;999.90;;;;;;;19.59;100.00;95380.56;5133338;27;20206;-60
2022/07/20 01:45:26;;;;;;;1999.90;999.90;;;;;;;19.54;100.00;95375.63;5133359;27;20186;-61
2022/07/20 01:47:52;;;;;;;1999.90;999.90;;;;;;;19.56;100.00;95375.19;5133309;27;20273;-60
2022/07/20 01:50:17;;;;;;;1999.90;999.90;;;;;;;19.54;100.00;95370.09;5133476;27;20182;-61
2022/07/20 01:52:43;;;;;;;1999.90;999.90;;;;;;;19.60;100.00;95379.34;5151354;27;20597;-62
2022/07/20 01:55:09;;;;;;;1999.90;999.90;;;;;;;19.61;100.00;95380.88;5133188;27;20190;-61
2022/07/20 01:57:34;;;;;;;1999.90;999.90;;;;;;;19.61;100.00;95375.34;5133311;27;20627;-61
2022/07/20 01:59:59;;;;;;;1999.90;999.90;;;;;;;19.59;100.00;95377.03;5133478;27;20315;-61
2022/07/20 02:02:25;;;;;;;1999.90;999.90;;;;;;;19.51;100.00;95375.81;5133515;27;20214;-61
2022/07/20 02:04:50;;;;;;;1999.90;999.90;;;;;;;19.40;100.00;95365.94;5132960;27;20193;-60
2022/07/20 02:07:15;;;;;;;1999.90;999.90;;;;;;;19.41;100.00;95366.69;5132926;27;20187;-60
2022/07/20 02:09:41;;;;;;;1999.90;999.90;;;;;;;19.40;100.00;95362.38;5132981;27;20588;-60
2022/07/20 02:12:07;;;;;;;1999.90;999.90;;;;;;;19.43;100.00;95358.72;5133070;27;20189;-61
2022/07/20 02:14:32;;;;;;;1999.90;999.90;;;;;;;19.46;100.00;95363.31;5125076;28;20190;-60
2022/07/20 02:16:57;;;;;;;1999.90;999.90;;;;;;;19.50;100.00;95358.41;5119534;28;20554;-61
2022/07/20 02:19:23;;;;;;;1999.90;999.90;;;;;;;19.48;100.00;95360.84;5119714;28;20624;-60
2022/07/20 02:21:48;;;;;;;1999.90;999.90;;;;;;;19.41;100.00;95366.69;5119250;28;20193;-61
2022/07/20 02:24:14;;;;;;;1999.90;999.90;;;;;;;19.41;100.00;95361.94;5119003;28;20189;-62
2022/07/20 02:26:39;;;;;;;1999.90;999.90;;;;;;;19.41;100.00;95363.91;5118688;28;20186;-59
2022/07/20 02:29:04;;;;;;;1999.90;999.90;;;;;;;19.42;100.00;95357.16;5119110;28;20171;-61
2022/07/20 02:31:30;;;;;;;1999.90;999.90;;;;;;;19.37;100.00;95361.31;5118911;28;20282;-54
2022/07/20 02:33:55;;;;;;;1999.90;999.90;;;;;;;19.31;100.00;95362.41;5119147;28;20598;-58
2022/07/20 02:36:21;;;;;;;1999.90;999.90;;;;;;;19.21;100.00;95353.28;5118968;28;20198;-58
2022/07/20 02:38:46;;;;;;;1999.90;999.90;;;;;;;19.13;100.00;95337.41;5136544;28;20598;-59
2022/07/20 02:41:11;;;;;;;1999.90;999.90;;;;;;;19.06;100.00;95346.03;5118483;28;20185;-59
2022/07/20 02:43:37;;;;;;;1999.90;999.90;;;;;;;18.97;100.00;95348.75;5118615;28;20210;-60
2022/07/20 02:46:03;;;;;;;1999.90;999.90;;;;;;;18.90;100.00;95340.75;5118562;28;20214;-64
2022/07/20 02:48:29;;;;;;;1999.90;999.90;;;;;;;18.91;100.00;95339.53;5119278;28;20243;-60
2022/07/20 02:50:55;;;;;;;1999.90;999.90;;;;;;;18.88;100.00;95340.44;5118628;28;20549;-56
2022/07/20 02:53:20;;;;;;;1999.90;999.90;;;;;;;18.83;100.00;95330.75;5118714;28;20202;-57
2022/07/20 02:55:45;;;;;;;1999.90;999.90;;;;;;;18.84;100.00;95328.75;5118277;28;20183;-63
2022/07/20 02:58:12;;;;;;;1999.90;999.90;;;;;;;18.83;100.00;95338.28;5119045;28;20659;-55
2022/07/20 03:00:39;;;;;;;1999.90;999.90;;;;;;;18.87;100.00;95336.16;5118444;28;20182;-60
2022/07/20 03:03:05;;;;;;;1999.90;999.90;;;;;;;18.88;100.00;95340.44;5118725;28;20207;-57
2022/07/20 03:05:32;;;;;;;1999.90;999.90;;;;;;;18.93;100.00;95345.38;5118832;28;20663;-61
2022/07/20 03:07:57;;;;;;;1999.90;999.90;;;;;;;18.93;100.00;95350.91;5118516;28;20268;-62
2022/07/20 03:10:22;;;;;;;1999.90;999.90;;;;;;;18.93;100.00;95348.13;5117956;28;20214;-61
2022/07/20 03:12:48;;;;;;;1999.90;999.90;;;;;;;18.93;100.00;95348.13;5118362;28;20598;-59
2022/07/20 03:15:13;;;;;;;1999.90;999.90;;;;;;;18.94;100.00;95344.16;5118251;28;20581;-60
2022/07/20 03:17:50;;;;;;;1999.90;999.90;;;;;;;18.87;100.00;95341.69;5118479;28;20547;-61
2022/07/20 03:20:27;;;;;;;1999.90;999.90;;;;;;;18.88;100.00;95349.53;5118577;28;20216;-62
2022/07/20 03:22:54;;;;;;;1999.90;999.90;;;;;;;18.86;100.00;95348.44;5118329;28;20195;-65
2022/07/20 03:25:20;;;;;;;1999.90;999.90;;;;;;;18.85;100.00;95352.44;5117619;28;20194;-59
2022/07/20 03:27:45;;;;;;;1999.90;999.90;;;;;;;18.84;100.00;95354.41;5118091;28;20179;-60
2022/07/20 03:30:11;;;;;;;1999.90;999.90;;;;;;;18.85;100.00;95357.97;5118377;28;20190;-59
2022/07/20 03:32:37;;;;;;;1999.90;999.90;;;;;;;18.87;100.00;95355.53;5117882;28;20643;-59
2022/07/20 03:35:03;;;;;;;1999.90;999.90;;;;;;;18.89;100.00;95351.06;5117714;28;20251;-60
2022/07/20 03:37:28;;;;;;;1999.90;999.90;;;;;;;18.96;100.00;95358.28;5117896;28;20186;-59
2022/07/20 03:39:54;;;;;;;1999.90;999.90;;;;;;;18.95;100.00;95362.31;5135809;28;20183;-60
2022/07/20 03:42:19;;;;;;;1999.90;999.90;;;;;;;18.86;100.00;95353.97;5118616;28;20263;-63
2022/07/20 03:44:45;;;;;;;1999.90;999.90;;;;;;;18.84;100.00;95356.44;5117497;28;20281;-60
2022/07/20 03:47:10;;;;;;;1999.90;999.90;;;;;;;18.91;100.00;95351.34;5118232;28;20215;-59
2022/07/20 03:49:35;;;;;;;1999.90;999.90;;;;;;;18.99;100.00;95357.38;5117844;28;20528;-60
2022/07/20 03:52:01;;;;;;;1999.90;999.90;;;;;;;19.09;100.00;95364.50;5118354;28;20239;-60
2022/07/20 03:54:26;;;;;;;1999.90;999.90;;;;;;;19.23;100.00;95361.13;5117627;28;20552;-61
2022/07/20 03:56:52;;;;;;;1999.90;999.90;;;;;;;19.28;100.00;95355.00;5117302;28;20178;-59
2022/07/20 03:59:17;;;;;;;1999.90;999.90;;;;;;;19.38;100.00;95362.09;5117832;28;20530;-56
2022/07/20 04:01:43;;;;;;;1999.90;999.90;;;;;;;19.56;100.00;95362.09;5117628;28;20190;-59
2022/07/20 04:04:08;;;;;;;1999.90;999.90;;;;;;;19.90;100.00;95370.09;5117476;28;20211;-58
2022/07/20 04:06:34;;;;;;;1999.90;999.90;;;;;;;20.22;100.00;95380.53;5117580;28;20194;-58
2022/07/20 04:09:00;;;;;;;1999.90;999.90;;;;;;;20.47;100.00;95377.38;5117203;28;20195;-59
2022/07/20 04:11:26;;;;;;;1999.90;999.90;;;;;;;20.73;100.00;95392.41;5117541;28;20197;-58
2022/07/20 04:13:52;;;;;;;1999.90;999.90;;;;;;;20.92;100.00;95399.44;5117276;28;20187;-60
2022/07/20 04:16:17;;;;;;;1999.90;999.90;;;;;;;21.20;100.00;95406.38;5117918;28;20194;-59
2022/07/20 04:18:43;;;;;;;1999.90;999.90;;;;;;;21.46;100.00;95404.66;5117331;28;20183;-63
2022/07/20 04:21:08;;;;;;;1999.90;999.90;;;;;;;21.76;100.00;95417.47;5116979;28;20222;-57
2022/07/20 04:23:34;;;;;;;1999.90;999.90;;;;;;;22.10;100.00;95425.22;5117128;28;20202;-61
2022/07/20 04:25:59;;;;;;;1999.90;999.90;;;;;;;22.38;100.00;95420.16;5117544;28;20210;-57
2022/07/20 04:28:25;;;;;;;1999.90;999.90;;;;;;;22.45;100.00;95417.78;5117329;28;20214;-57
2022/07/20 04:30:50;;;;;;;1999.90;999.90;;;;;;;22.67;100.00;95427.78;5117096;28;20187;-56
2022/07/20 04:33:18;;;;;;;1999.90;999.90;;;;;;;22.90;100.00;95435.28;5117040;28;20179;-57
2022/07/20 04:35:44;;;;;;;1999.90;999.90;;;;;;;23.07;100.00;95433.50;5117169;28;20190;-63
2022/07/20 04:38:09;;;;;;;1999.90;999.90;;;;;;;23.29;100.00;95428.28;5116604;28;20179;-62
2022/07/20 04:40:34;;;;;;;1999.90;999.90;;;;;;;23.82;98.18;95437.13;5116663;28;20215;-62
2022/07/20 04:43:00;;;;;;;1999.90;999.90;;;;;;;24.25;94.67;95436.13;5116724;28;20297;-60
2022/07/20 04:45:25;;;;;;;1999.90;999.90;;;;;;;24.52;92.12;95435.69;5116839;28;20187;-61
2022/07/20 04:47:50;;;;;;;1999.90;999.90;;;;;;;24.66;91.14;95443.22;5116861;28;20190;-62
2022/07/20 04:50:16;;;;;;;1999.90;999.90;;;;;;;24.65;91.42;95447.25;5116362;28;20228;-63
2022/07/20 04:52:41;;;;;;;1999.90;999.90;;;;;;;25.10;89.81;95449.19;5116601;28;20190;-61
2022/07/20 04:55:07;;;;;;;1999.90;999.90;;;;;;;25.75;85.60;95442.53;5116917;28;20183;-60
2022/07/20 04:57:33;;;;;;;1999.90;999.90;;;;;;;26.27;81.59;95443.78;5116584;28;20187;-60
2022/07/20 04:59:58;;;;;;;1999.90;999.90;;;;;;;26.78;78.85;95451.84;5134623;28;20190;-60
2022/07/20 05:02:24;;;;;;;1999.90;999.90;;;;;;;27.12;77.45;95453.38;5116395;28;20207;-60
2022/07/20 05:04:49;;;;;;;1999.90;999.90;;;;;;;27.23;77.07;95450.59;5116373;28;20218;-59
2022/07/20 05:07:15;;;;;;;1999.90;999.90;;;;;;;27.31;76.53;95445.25;5116496;28;20179;-59
2022/07/20 05:09:41;;;;;;;1999.90;999.90;;;;;;;26.94;77.60;95448.28;5116234;28;20199;-58
2022/07/20 05:12:07;;;;;;;1999.90;999.90;;;;;;;26.84;78.37;95449.03;5116019;28;20272;-64
2022/07/20 05:14:32;;;;;;;1999.90;999.90;;;;;;;27.17;77.76;95452.59;5116976;28;20270;-62
2022/07/20 05:16:58;;;;;;;1999.90;999.90;;;;;;;26.98;78.22;95445.97;5116308;28;20274;-63
2022/07/20 05:19:23;;;;;;;1999.90;999.90;;;;;;;27.08;78.85;95455.69;5116450;28;20210;-68
2022/07/20 05:21:48;;;;;;;1999.90;999.90;;;;;;;27.47;76.50;95453.66;5116118;28;20186;-66
2022/07/20 05:24:14;;;;;;;1999.90;999.90;;;;;;;27.67;76.08;95453.34;5115668;28;20230;-65
2022/07/20 05:26:39;;;;;;;1999.90;999.90;;;;;;;28.15;73.95;95448.13;5116503;28;20206;-65
2022/07/20 05:29:05;;;;;;;1999.90;999.90;;;;;;;28.06;73.68;95451.22;5116178;28;20249;-66
2022/07/20 05:31:31;;;;;;;1999.90;999.90;;;;;;;28.28;73.76;95458.78;5116012;28;20265;-60
2022/07/20 05:33:56;;;;;;;1999.90;999.90;;;;;;;28.52;73.18;95449.75;5116099;28;20188;-64
2022/07/20 05:36:22;;;;;;;1999.90;999.90;;;;;;;28.86;71.08;95456.69;5115986;28;20256;-67
2022/07/20 05:38:47;;;;;;;1999.90;999.90;;;;;;;29.22;70.46;95450.59;5115953;28;20180;-65
2022/07/20 05:41:13;;;;;;;1999.90;999.90;;;;;;;29.83;67.46;95447.22;5133981;28;20175;-65
2022/07/20 05:43:38;;;;;;;1999.90;999.90;;;;;;;30.92;61.89;95444.34;5115838;28;20268;-67
2022/07/20 05:46:04;;;;;;;1999.90;999.90;;;;;;;30.87;62.26;95453.63;5115852;28;20214;-67
2022/07/20 05:48:31;;;;;;;1999.90;999.90;;;;;;;31.67;59.10;95445.66;5134022;27;20187;-69
2022/07/20 05:50:56;;;;;;;1999.90;999.90;;;;;;;32.46;55.97;95461.41;5119711;28;20183;-65
2022/07/20 05:53:21;;;;;;;1999.90;999.90;;;;;;;32.78;53.57;95450.66;5119395;28;20217;-59
2022/07/20 05:55:47;;;;;;;1999.90;999.90;;;;;;;33.28;50.97;95453.13;5137566;28;20206;-61
2022/07/20 05:58:12;;;;;;;1999.90;999.90;;;;;;;33.72;49.21;95460.53;5119370;28;20186;-58
2022/07/20 06:00:38;;;;;;;1999.90;999.90;;;;;;;33.71;48.77;95461.84;5137408;28;20261;-61
2022/07/20 06:03:04;;;;;;;1999.90;999.90;;;;;;;33.92;47.78;95459.03;5119322;28;20194;-59
2022/07/20 06:05:30;;;;;;;1999.90;999.90;;;;;;;33.73;48.37;95470.56;5118869;28;20195;-59
2022/07/20 06:07:57;;;;;;;1999.90;999.90;;;;;;;34.97;45.17;95453.97;5119450;28;20255;-60
2022/07/20 06:10:23;;;;;;;1999.90;999.90;;;;;;;34.60;45.22;95453.78;5119539;28;20207;-60
2022/07/20 06:12:49;;;;;;;1999.90;999.90;;;;;;;35.39;42.26;95460.16;5119003;28;20199;-62
2022/07/20 06:15:14;;;;;;;1999.90;999.90;;;;;;;35.64;41.34;95456.19;5118864;28;20264;-60
2022/07/20 06:17:40;;;;;;;1999.90;999.90;;;;;;;35.30;42.67;95457.84;5118896;28;20179;-61
2022/07/20 06:20:10;;;;;;;1999.90;999.90;;;;;;;34.85;44.08;95463.38;5119084;28;20183;-58
2022/07/20 06:22:40;;;;;;;1999.90;999.90;;;;;;;35.41;42.46;95458.25;5118941;28;20182;-60
2022/07/20 06:25:06;;;;;;;1999.90;999.90;;;;;;;35.76;40.90;95462.28;5119051;28;20269;-60
2022/07/20 06:27:32;;;;;;;1999.90;999.90;;;;;;;36.71;39.74;95455.53;5119053;28;20194;-62
2022/07/20 06:29:58;;;;;;;1999.90;999.90;;;;;;;37.37;37.61;95458.66;5118888;28;20179;-63
2022/07/20 06:32:24;;;;;;;1999.90;999.90;;;;;;;37.27;37.62;95459.84;5119177;28;20191;-62
2022/07/20 06:34:50;;;;;;;1999.90;999.90;;;;;;;37.63;36.93;95463.81;5118708;28;20183;-62
2022/07/20 06:37:15;;;;;;;1999.90;999.90;;;;;;;38.26;35.27;95464.25;5136937;28;20182;-63
2022/07/20 06:39:40;;;;;;;1999.90;999.90;;;;;;;38.11;35.53;95462.31;5118391;28;20191;-62
2022/07/20 06:42:06;;;;;;;1999.90;999.90;;;;;;;38.17;34.78;95465.69;5119065;28;20258;-62
2022/07/20 06:44:31;;;;;;;1999.90;999.90;;;;;;;39.02;33.77;95462.09;5118705;28;20194;-60
2022/07/20 06:49:32;;;;;;;1999.90;999.90;;;;;;;39.43;32.44;95466.16;5094693;28;20215;-52
2022/07/20 06:51:58;;;;;;;1999.90;999.90;;;;;;;39.03;33.23;95470.09;5077399;28;20184;-55
2022/07/20 06:54:23;;;;;;;1999.90;999.90;;;;;;;40.52;31.48;95471.25;5094203;28;20177;-57
2022/07/20 06:56:49;;;;;;;1999.90;999.90;;;;;;;40.68;30.15;95468.88;5094611;28;20271;-54
2022/07/20 06:59:14;;;;;;;1999.90;999.90;;;;;;;40.81;29.98;95468.41;5077474;28;20278;-55
2022/07/20 07:01:40;;;;;;;1999.90;999.90;;;;;;;41.14;29.55;95466.63;5077367;28;20275;-54
2022/07/20 07:04:05;;;;;;;1999.90;999.90;;;;;;;41.33;28.96;95478.06;5077995;28;20187;-59
2022/07/20 07:06:32;;;;;;;1999.90;999.90;;;;;;;41.58;28.65;95476.38;5077715;28;20180;-60
2022/07/20 07:08:58;;;;;;;1999.90;999.90;;;;;;;42.37;27.59;95474.09;5074356;28;20213;-60
2022/07/20 07:11:23;;;;;;;1999.90;999.90;;;;;;;42.99;26.71;95478.34;5073950;28;20185;-61
2022/07/20 07:13:49;;;;;;;1999.90;999.90;;;;;;;42.72;26.93;95480.09;5057335;28;20212;-62
2022/07/20 07:16:15;;;;;;;1999.90;999.90;;;;;;;43.15;26.42;95479.44;5057273;28;20215;-66
2022/07/20 07:18:40;;;;;;;1999.90;999.90;;;;;;;43.32;26.12;95473.38;5057768;28;20200;-65
2022/07/20 07:21:05;;;;;;;1999.90;999.90;;;;;;;42.73;26.64;95481.59;5074048;28;20177;-57
2022/07/20 07:23:31;;;;;;;1999.90;999.90;;;;;;;42.74;26.58;95483.84;5057057;28;20185;-66
2022/07/20 07:25:56;;;;;;;1999.90;999.90;;;;;;;43.09;26.44;95481.94;5057227;28;20201;-65
2022/07/20 07:28:22;;;;;;;1999.90;999.90;;;;;;;42.71;27.02;95478.59;5056496;28;20181;-65
2022/07/20 07:30:50;;;;;;;1999.90;999.90;;;;;;;43.66;25.26;95483.50;5056728;28;20229;-63
2022/07/20 07:33:16;;;;;;;1999.90;999.90;;;;;;;43.16;26.08;95475.22;5074722;28;20291;-64
2022/07/20 07:35:42;;;;;;;1999.90;999.90;;;;;;;42.53;26.64;95478.09;5073602;28;20177;-63
2022/07/20 07:38:07;;;;;;;1999.90;999.90;;;;;;;42.80;26.88;95475.63;5057395;28;20200;-64
2022/07/20 07:40:32;;;;;;;1999.90;999.90;;;;;;;44.11;25.29;95471.31;5057075;28;20189;-72
2022/07/20 07:42:58;;;;;;;1999.90;999.90;;;;;;;44.82;24.29;95472.75;5073507;28;20184;-56
2022/07/20 07:45:23;;;;;;;1999.90;999.90;;;;;;;43.09;26.07;95467.53;5056845;28;20319;-56
2022/07/20 07:47:48;;;;;;;1999.90;999.90;;;;;;;42.49;26.32;95474.91;5073557;28;20192;-54
2022/07/20 07:50:14;;;;;;;1999.90;999.90;;;;;;;42.44;27.12;95467.41;5056906;28;20268;-57
2022/07/20 07:52:40;;;;;;;1999.90;999.90;;;;;;;43.11;26.32;95470.53;5056993;28;20201;-56
2022/07/20 07:55:06;;;;;;;1999.90;999.90;;;;;;;43.43;25.63;95472.69;5057320;28;20227;-57
2022/07/20 07:57:31;;;;;;;1999.90;999.90;;;;;;;44.86;23.69;95473.75;5057164;28;20201;-60
2022/07/20 07:59:56;;;;;;;1999.90;999.90;;;;;;;44.71;23.70;95468.50;5057136;28;20216;-60
2022/07/20 08:02:22;;;;;;;1999.90;999.90;;;;;;;44.75;23.57;95477.41;5057071;28;20212;-57
2022/07/20 08:04:47;;;;;;;1999.90;999.90;;;;;;;44.16;24.36;95460.75;5056602;28;20192;-56
2022/07/20 08:07:13;;;;;;;1999.90;999.90;;;;;;;44.67;24.31;95467.53;5056497;28;20269;-57
2022/07/20 08:09:38;;;;;;;1999.90;999.90;;;;;;;44.64;23.85;95465.91;5056538;28;20201;-58
2022/07/20 08:12:04;;;;;;;1999.90;999.90;;;;;;;45.86;22.42;95462.25;5055708;28;20207;-57
2022/07/20 08:14:29;;;;;;;1999.90;999.90;;;;;;;45.61;23.16;95465.16;5056583;28;20263;-59
2022/07/20 08:16:55;;;;;;;1999.90;999.90;;;;;;;45.70;22.83;95466.38;5056541;28;20176;-68
2022/07/20 08:19:20;;;;;;;1999.90;999.90;;;;;;;46.49;22.53;95463.53;5056639;28;20181;-70
2022/07/20 08:21:45;;;;;;;1999.90;999.90;;;;;;;47.02;21.10;95467.75;5056433;28;20188;-64
2022/07/20 08:24:14;;;;;;;1999.90;999.90;;;;;;;47.30;20.96;95463.41;5056185;28;20186;-64
2022/07/20 08:26:39;;;;;;;1999.90;999.90;;;;;;;48.20;19.45;95470.69;5056288;28;20184;-62
2022/07/20 08:29:05;;;;;;;1999.90;999.90;;;;;;;48.04;19.25;95461.22;5073390;28;20180;-68
2022/07/20 08:31:31;;;;;;;1999.90;999.90;;;;;;;47.06;20.49;95476.63;5056280;28;20188;-70
2022/07/20 08:33:56;;;;;;;1999.90;999.90;;;;;;;48.41;19.28;95473.09;5073813;28;20201;-70
2022/07/20 08:36:21;;;;;;;1999.90;999.90;;;;;;;48.68;19.09;95469.97;5056001;28;20310;-61
2022/07/20 08:38:47;;;;;;;1999.90;999.90;;;;;;;48.28;18.95;95471.03;5072719;28;20184;-60
2022/07/20 08:41:14;;;;;;;1999.90;999.90;;;;;;;48.01;18.77;95459.63;5056134;28;20290;-59
2022/07/20 08:43:40;;;;;;;1999.90;999.90;;;;;;;46.87;20.01;95456.84;5056337;28;20236;-58
2022/07/20 08:46:06;;;;;;;1999.90;999.90;;;;;;;47.55;19.44;95451.63;5056160;28;20275;-60
2022/07/20 08:48:34;;;;;;;1999.90;999.90;;;;;;;47.40;19.47;95455.19;5055981;28;20181;-60
2022/07/20 08:50:59;;;;;;;1999.90;999.90;;;;;;;46.72;20.58;95451.69;5055869;28;20237;-58
2022/07/20 08:53:25;;;;;;;1999.90;999.90;;;;;;;46.22;21.02;95452.69;5055888;28;20283;-58
2022/07/20 08:55:50;;;;;;;1999.90;999.90;;;;;;;45.86;21.01;95450.69;5056589;28;20200;-53
2022/07/20 08:58:16;;;;;;;1999.90;999.90;;;;;;;46.20;21.19;95451.81;5055840;28;20188;-55
2022/07/20 09:00:41;;;;;;;1999.90;999.90;;;;;;;47.28;19.37;95459.63;5056154;28;20184;-56
2022/07/20 09:03:08;;;;;;;1999.90;999.90;;;;;;;47.26;19.09;95454.50;5055789;28;20208;-51
2022/07/20 09:05:37;;;;;;;1999.90;999.90;;;;;;;47.87;18.69;95450.25;5055876;28;20285;-54
2022/07/20 09:08:03;;;;;;;1999.90;999.90;;;;;;;47.74;19.34;95448.19;5055740;28;20214;-52
2022/07/20 09:10:35;;;;;;;1999.90;999.90;;;;;;;47.75;18.59;95448.91;5055670;28;20208;-52
2022/07/20 09:13:04;;;;;;;1999.90;999.90;;;;;;;48.58;18.32;95448.47;5072909;28;20192;-61
2022/07/20 09:15:35;;;;;;;1999.90;999.90;;;;;;;48.84;17.52;95444.56;5055726;28;20302;-62
2022/07/20 09:18:08;;;;;;;1999.90;999.90;;;;;;;47.76;18.94;95456.94;5056132;28;20193;-62
2022/07/20 09:20:35;;;;;;;1999.90;999.90;;;;;;;47.92;18.55;95451.97;5055308;28;20185;-61
2022/07/20 09:23:13;;;;;;;1999.90;999.90;;;;;;;47.70;18.82;95450.88;5072843;28;20232;-62
2022/07/20 09:25:50;;;;;;;1999.90;999.90;;;;;;;47.99;17.81;95445.03;5059081;28;20188;-62
2022/07/20 09:28:15;;;;;;;1999.90;999.90;;;;;;;47.87;17.93;95450.25;5075595;28;20274;-62
2022/07/20 09:30:49;;;;;;;1999.90;999.90;;;;;;;47.85;17.96;95450.19;5059172;28;20461;-59
2022/07/20 09:33:23;;;;;;;1999.90;999.90;;;;;;;48.36;17.40;95456.91;5076312;28;20211;-79
2022/07/20 09:35:49;;;;;;;1999.90;999.90;;;;;;;48.74;17.14;95455.72;5076225;28;20181;-73
2022/07/20 09:38:14;;;;;;;1999.90;999.90;;;;;;;47.58;17.71;95452.47;5076737;28;20196;-75
2022/07/20 09:40:45;;;;;;;1999.90;999.90;;;;;;;48.27;17.79;95457.94;5059001;28;20275;-76
2022/07/20 09:43:34;;;;;;;1999.90;999.90;;;;;;;47.14;17.61;95451.00;5076018;28;20208;-76
2022/07/20 09:46:14;;;;;;;1999.90;999.90;;;;;;;46.76;18.70;95446.13;5058987;28;20193;-74
2022/07/20 09:48:45;;;;;;;1999.90;999.90;;;;;;;46.28;19.29;95447.19;5058769;28;20184;-62
2022/07/20 09:51:27;;;;;;;1999.90;999.90;;;;;;;46.19;19.58;95450.31;5059214;28;20184;-56
2022/07/20 09:54:01;;;;;;;1999.90;999.90;;;;;;;46.32;19.63;95455.34;5058661;28;20192;-56
2022/07/20 09:56:27;;;;;;;1999.90;999.90;;;;;;;46.33;18.67;95456.84;5075362;28;20275;-58
2022/07/20 09:58:55;;;;;;;1999.90;999.90;;;;;;;45.84;19.17;95446.94;5075470;28;20181;-57
2022/07/20 10:01:26;;;;;;;1999.90;999.90;;;;;;;45.91;19.19;95445.88;5075258;28;20185;-56
2022/07/20 10:03:54;;;;;;;1999.90;999.90;;;;;;;46.32;19.20;95444.53;5058601;28;20208;-55
2022/07/20 10:06:21;;;;;;;1999.90;999.90;;;;;;;45.12;19.81;95443.56;5075084;28;20192;-58
2022/07/20 10:08:47;;;;;;;1999.90;999.90;;;;;;;45.43;20.04;95448.94;5074748;28;20239;-68
2022/07/20 10:11:14;;;;;;;1999.90;999.90;;;;;;;46.31;18.77;95436.50;5075347;28;20283;-75
2022/07/20 10:13:42;;;;;;;1999.90;999.90;;;;;;;45.04;19.51;95448.09;5075208;28;20210;-71
2022/07/20 10:16:26;;;;;;;1999.90;999.90;;;;;;;46.15;19.40;95452.97;5058332;28;20185;-73
2022/07/20 10:18:53;;;;;;;1999.90;999.90;;;;;;;47.04;18.29;95453.38;5058232;28;20184;-68
2022/07/20 10:21:41;;;;;;;1999.90;999.90;;;;;;;46.74;18.25;95449.66;5058342;28;20176;-64
2022/07/20 10:24:30;;;;;;;1999.90;999.90;;;;;;;46.43;18.71;95448.75;5058227;28;20200;-69
2022/07/20 10:27:26;;;;;;;1999.90;999.90;;;;;;;47.14;17.88;95438.66;5058562;28;20188;-66
2022/07/20 10:29:54;;;;;;;1999.90;999.90;;;;;;;46.59;18.90;95440.88;5074462;28;20230;-66
2022/07/20 10:32:23;;;;;;;1999.90;999.90;;;;;;;45.94;19.40;95444.56;5074444;28;20183;-67
2022/07/20 10:34:57;;;;;;;1999.90;999.90;;;;;;;45.78;19.52;95435.03;5057712;28;20266;-66
2022/07/20 10:37:39;;;;;;;1999.90;999.90;;;;;;;46.20;18.66;95443.16;5074542;28;20188;-64
2022/07/20 10:40:05;;;;;;;1999.90;999.90;;;;;;;46.67;18.30;95444.19;5058633;28;20184;-66
2022/07/20 10:42:45;;;;;;;1999.90;999.90;;;;;;;47.01;17.79;95449.59;5057942;28;20204;-65
2022/07/20 10:45:11;;;;;;;1999.90;999.90;;;;;;;46.60;18.19;95433.72;5058039;28;20257;-70
2022/07/20 10:48:11;;;;;;;1999.90;999.90;;;;;;;46.62;17.76;95443.25;5057845;28;20216;-63
2022/07/20 10:50:39;;;;;;;1999.90;999.90;;;;;;;45.95;17.97;95443.22;5057607;28;20182;-66
2022/07/20 10:53:10;;;;;;;1999.90;999.90;;;;;;;45.58;18.83;95445.47;5074064;28;20185;-68
2022/07/20 10:55:35;;;;;;;1999.90;999.90;;;;;;;45.13;18.69;95439.28;5057596;28;20186;-66